createdAt,value
2019-04-27T00:01:40.637Z,2.07
2019-04-27T00:04:35.093Z,2.33
2019-04-27T00:07:21.204Z,2.00
2019-04-27T00:09:53.413Z,2.00
2019-04-27T00:12:22.420Z,1.90
2019-04-27T00:14:54.428Z,2.30
2019-04-27T00:17:45.757Z,2.20
2019-04-27T00:20:26.114Z,2.50
2019-04-27T00:22:58.346Z,2.63
2019-04-27T00:25:27.008Z,2.47
2019-04-27T00:27:54.005Z,3.00
2019-04-27T00:30:24.182Z,2.63
2019-04-27T00:32:53.511Z,3.77
2019-04-27T00:35:27.505Z,3.50
2019-04-27T00:38:03.203Z,2.80
2019-04-27T00:40:33.795Z,3.43
2019-04-27T00:43:02.938Z,2.90
2019-04-27T00:45:29.675Z,2.83
2019-04-27T00:47:59.711Z,2.60
2019-04-27T00:50:25.045Z,2.30
2019-04-27T00:52:53.171Z,2.80
2019-04-27T00:55:20.220Z,2.17
2019-04-27T00:57:58.946Z,2.30
2019-04-27T01:00:45.463Z,2.63
2019-04-27T01:03:43.859Z,2.70
2019-04-27T01:06:10.693Z,2.70
2019-04-27T01:08:37.470Z,2.23
2019-04-27T01:11:04.252Z,2.53
2019-04-27T01:13:31.113Z,2.53
2019-04-27T01:15:57.855Z,2.17
2019-04-27T01:18:24.575Z,2.50
2019-04-27T01:20:52.074Z,2.73
2019-04-27T01:23:19.352Z,2.20
2019-04-27T01:26:09.728Z,2.33
2019-04-27T01:28:42.920Z,2.37
2019-04-27T01:31:12.584Z,2.40
2019-04-27T01:33:41.053Z,2.60
2019-04-27T01:36:08.896Z,2.27
2019-04-27T01:38:36.855Z,2.70
2019-04-27T01:41:04.483Z,2.90
2019-04-27T01:43:31.225Z,2.50
2019-04-27T01:45:58.706Z,2.50
2019-04-27T01:48:28.264Z,2.70
2019-04-27T01:50:56.806Z,2.17
2019-04-27T01:53:23.698Z,2.60
2019-04-27T01:55:50.423Z,2.80
2019-04-27T01:58:19.940Z,3.10
2019-04-27T02:00:55.816Z,3.70
2019-04-27T02:03:33.189Z,3.77
2019-04-27T02:05:57.370Z,3.20
2019-04-27T02:08:24.122Z,2.70
2019-04-27T02:10:50.946Z,2.67
2019-04-27T02:13:19.697Z,3.27
2019-04-27T02:15:46.473Z,2.80
2019-04-27T02:18:13.285Z,3.00
2019-04-27T02:20:40.061Z,2.87
2019-04-27T02:23:06.828Z,2.80
2019-04-27T02:25:33.714Z,2.80
2019-04-27T02:28:06.961Z,3.30
2019-04-27T02:30:51.941Z,2.97
2019-04-27T02:33:40.187Z,2.50
2019-04-27T02:36:06.392Z,2.40
2019-04-27T02:38:33.134Z,2.30
2019-04-27T02:41:01.249Z,2.63
2019-04-27T02:43:35.539Z,2.67
2019-04-27T02:46:02.417Z,2.67
2019-04-27T02:48:29.807Z,2.33
2019-04-27T02:51:00.793Z,2.70
2019-04-27T02:53:46.330Z,2.50
2019-04-27T02:56:13.375Z,2.70
2019-04-27T02:58:40.744Z,2.57
2019-04-27T03:01:09.966Z,2.60
2019-04-27T03:03:36.494Z,2.80
2019-04-27T03:06:03.335Z,2.97
2019-04-27T03:08:30.075Z,2.60
2019-04-27T03:10:56.925Z,2.87
2019-04-27T03:13:31.133Z,3.10
2019-04-27T03:16:26.306Z,2.90
2019-04-27T03:19:18.165Z,2.53
2019-04-27T03:22:13.312Z,2.70
2019-04-27T03:25:20.158Z,2.30
2019-04-27T03:27:50.243Z,2.93
2019-04-27T03:30:22.400Z,2.70
2019-04-27T03:32:46.413Z,2.80
2019-04-27T03:35:13.720Z,2.60
2019-04-27T03:37:40.956Z,2.30
2019-04-27T03:40:10.255Z,2.10
2019-04-27T03:42:40.315Z,2.10
2019-04-27T03:45:07.388Z,2.07
2019-04-27T03:47:34.149Z,2.30
2019-04-27T03:50:00.937Z,1.90
2019-04-27T03:52:33.828Z,1.93
2019-04-27T03:55:21.384Z,2.00
2019-04-27T03:58:12.125Z,1.83
2019-04-27T04:00:39.934Z,1.90
2019-04-27T04:03:06.965Z,1.90
2019-04-27T04:05:34.783Z,1.60
2019-04-27T04:08:01.815Z,1.47
2019-04-27T04:10:30.438Z,1.50
2019-04-27T04:13:05.954Z,1.50
2019-04-27T04:15:45.558Z,1.70
2019-04-27T04:18:12.397Z,1.97
2019-04-27T04:20:40.487Z,2.47
2019-04-27T04:23:10.398Z,2.30
2019-04-27T04:25:36.392Z,2.10
2019-04-27T04:28:03.159Z,1.90
2019-04-27T04:30:30.431Z,2.00
2019-04-27T04:32:59.677Z,1.90
2019-04-27T04:35:25.978Z,1.97
2019-04-27T04:37:53.429Z,2.13
2019-04-27T04:40:25.396Z,1.70
2019-04-27T04:43:02.594Z,1.87
2019-04-27T04:45:41.263Z,1.53
2019-04-27T04:48:11.361Z,1.80
2019-04-27T04:50:39.654Z,1.67
2019-04-27T04:53:06.748Z,2.00
2019-04-27T04:55:34.034Z,1.30
2019-04-27T04:58:00.809Z,1.50
2019-04-27T05:00:29.618Z,1.60
2019-04-27T05:02:56.210Z,1.40
2019-04-27T05:05:22.966Z,1.77
2019-04-27T05:07:50.034Z,1.60
2019-04-27T05:10:16.770Z,1.27
2019-04-27T05:12:43.500Z,1.70
2019-04-27T05:15:10.223Z,1.33
2019-04-27T05:17:37.194Z,2.10
2019-04-27T05:20:24.698Z,1.60
2019-04-27T05:22:50.306Z,1.60
2019-04-27T05:25:18.475Z,1.57
2019-04-27T05:27:45.566Z,1.53
2019-04-27T05:30:12.502Z,1.80
2019-04-27T05:32:42.655Z,1.57
2019-04-27T05:35:09.409Z,1.63
2019-04-27T05:37:36.145Z,1.97
2019-04-27T05:40:03.281Z,1.97
2019-04-27T05:42:32.759Z,1.67
2019-04-27T05:45:33.925Z,1.67
2019-04-27T05:48:05.288Z,1.57
2019-04-27T05:50:38.760Z,1.60
2019-04-27T05:53:03.566Z,1.80
2019-04-27T05:55:30.393Z,2.00
2019-04-27T05:57:58.992Z,1.87
2019-04-27T06:00:25.788Z,2.07
2019-04-27T06:02:52.525Z,1.80
2019-04-27T06:05:19.331Z,2.00
2019-04-27T06:07:46.121Z,2.17
2019-04-27T06:10:14.039Z,1.90
2019-04-27T06:12:40.877Z,1.80
2019-04-27T06:15:09.515Z,1.90
2019-04-27T06:17:36.343Z,2.20
2019-04-27T06:20:04.048Z,1.90
2019-04-27T06:22:30.804Z,1.90
2019-04-27T06:25:00.487Z,1.93
2019-04-27T06:27:30.191Z,1.80
2019-04-27T06:29:56.127Z,2.30
2019-04-27T06:32:22.848Z,2.03
2019-04-27T06:34:49.736Z,2.00
2019-04-27T06:37:16.734Z,2.27
2019-04-27T06:39:44.087Z,2.50
2019-04-27T06:42:18.219Z,2.57
2019-04-27T06:44:45.804Z,2.60
2019-04-27T06:47:12.956Z,2.87
2019-04-27T06:49:39.939Z,2.63
2019-04-27T06:52:08.567Z,2.30
2019-04-27T06:54:35.492Z,2.40
2019-04-27T06:57:02.223Z,2.70
2019-04-27T06:59:29.053Z,2.23
2019-04-27T07:01:55.868Z,3.03
2019-04-27T07:04:22.776Z,4.57
2019-04-27T07:06:54.005Z,2.73
2019-04-27T07:09:19.571Z,3.00
2019-04-27T07:11:46.426Z,2.97
2019-04-27T07:14:13.123Z,2.60
2019-04-27T07:16:41.531Z,2.30
2019-04-27T07:19:11.110Z,2.50
2019-04-27T07:21:39.730Z,3.20
2019-04-27T07:24:06.548Z,2.87
2019-04-27T07:26:33.297Z,2.80
2019-04-27T07:29:00.048Z,2.90
2019-04-27T07:31:26.800Z,2.90
2019-04-27T07:33:53.517Z,2.40
2019-04-27T07:36:20.408Z,3.20
2019-04-27T07:38:48.563Z,2.77
2019-04-27T07:41:15.824Z,2.53
2019-04-27T07:43:49.807Z,2.40
2019-04-27T07:46:18.646Z,2.43
2019-04-27T07:48:45.462Z,3.10
2019-04-27T07:51:12.243Z,2.80
2019-04-27T07:53:39.236Z,2.90
2019-04-27T07:56:10.885Z,3.00
2019-04-27T07:58:39.574Z,2.80
2019-04-27T08:01:06.422Z,3.00
2019-04-27T08:03:33.494Z,2.30
2019-04-27T08:06:00.480Z,2.80
2019-04-27T08:08:28.597Z,2.63
2019-04-27T08:10:55.568Z,2.30
2019-04-27T08:13:22.438Z,2.70
2019-04-27T08:15:49.703Z,2.73
2019-04-27T08:18:18.828Z,2.20
2019-04-27T08:20:45.659Z,2.10
2019-04-27T08:23:12.437Z,2.03
2019-04-27T08:25:41.384Z,2.47
2019-04-27T08:28:19.177Z,2.93
2019-04-27T08:30:54.909Z,2.20
2019-04-27T08:33:21.646Z,2.33
2019-04-27T08:35:50.720Z,2.30
2019-04-27T08:38:18.977Z,2.53
2019-04-27T08:40:46.430Z,2.53
2019-04-27T08:43:13.435Z,3.13
2019-04-27T08:45:40.584Z,1.87
2019-04-27T08:48:09.127Z,2.53
2019-04-27T08:50:39.803Z,2.30
2019-04-27T08:53:05.966Z,2.20
2019-04-27T08:55:32.713Z,2.17
2019-04-27T08:57:59.716Z,2.40
2019-04-27T09:00:26.455Z,2.80
2019-04-27T09:02:55.795Z,2.60
2019-04-27T09:05:25.327Z,3.17
2019-04-27T09:08:00.809Z,2.43
2019-04-27T09:10:38.842Z,2.77
2019-04-27T09:13:16.293Z,1.93
2019-04-27T09:16:11.128Z,3.07
2019-04-27T09:18:38.915Z,2.03
2019-04-27T09:21:08.789Z,2.50
2019-04-27T09:23:38.831Z,2.30
2019-04-27T09:26:07.367Z,2.90
2019-04-27T09:28:38.801Z,2.33
2019-04-27T09:31:06.081Z,2.33
2019-04-27T09:33:32.818Z,2.00
2019-04-27T09:35:59.684Z,1.60
2019-04-27T09:38:26.880Z,2.70
2019-04-27T09:40:57.791Z,2.33
2019-04-27T09:43:23.815Z,2.37
2019-04-27T09:45:55.955Z,2.00
2019-04-27T09:48:23.087Z,1.87
2019-04-27T09:50:50.776Z,2.10
2019-04-27T09:53:17.851Z,1.87
2019-04-27T09:55:46.759Z,2.00
2019-04-27T09:58:13.452Z,1.60
2019-04-27T10:00:40.174Z,1.20
2019-04-27T10:03:06.954Z,1.43
2019-04-27T10:05:33.887Z,1.10
2019-04-27T10:08:00.724Z,1.70
2019-04-27T10:10:27.488Z,1.40
2019-04-27T10:12:56.950Z,1.47
2019-04-27T10:15:23.738Z,1.50
2019-04-27T10:17:50.947Z,1.47
2019-04-27T10:20:17.658Z,1.20
2019-04-27T10:22:46.199Z,0.90
2019-04-27T10:25:26.822Z,1.40
2019-04-27T10:27:59.314Z,1.23
2019-04-27T10:30:26.513Z,1.20
2019-04-27T10:32:53.895Z,1.33
2019-04-27T10:35:20.644Z,0.90
2019-04-27T10:37:47.463Z,1.10
2019-04-27T10:40:16.394Z,1.07
2019-04-27T10:42:43.232Z,1.40
2019-04-27T10:45:12.257Z,3.13
2019-04-27T10:47:39.057Z,1.50
2019-04-27T10:50:05.973Z,1.00
2019-04-27T10:52:32.735Z,1.00
2019-04-27T10:54:59.465Z,1.00
2019-04-27T10:57:26.160Z,0.80
2019-04-27T10:59:53.013Z,0.80
2019-04-27T11:02:19.710Z,0.80
2019-04-27T11:05:11.640Z,1.10
2019-04-27T11:07:40.992Z,0.97
2019-04-27T11:10:08.163Z,1.13
2019-04-27T11:12:34.852Z,0.90
2019-04-27T11:15:01.552Z,1.00
2019-04-27T11:17:28.252Z,1.00
2019-04-27T11:19:55.223Z,0.67
2019-04-27T11:22:22.063Z,0.80
2019-04-27T11:24:48.783Z,1.20
2019-04-27T11:27:15.547Z,0.93
2019-04-27T11:29:42.270Z,0.80
2019-04-27T11:32:08.979Z,1.00
2019-04-27T11:34:55.744Z,0.97
2019-04-27T11:37:27.826Z,1.00
2019-04-27T11:39:55.978Z,0.90
2019-04-27T11:42:22.856Z,0.90
2019-04-27T11:44:49.573Z,0.90
2019-04-27T11:47:16.339Z,1.10
2019-04-27T11:49:46.116Z,0.90
2019-04-27T11:52:12.845Z,1.10
2019-04-27T11:54:40.205Z,1.20
2019-04-27T11:57:06.913Z,1.40
2019-04-27T11:59:33.620Z,1.30
2019-04-27T12:02:00.352Z,1.40
2019-04-27T12:04:27.059Z,1.20
2019-04-27T12:06:54.319Z,1.37
2019-04-27T12:09:21.267Z,1.00
2019-04-27T12:11:48.010Z,1.10
2019-04-27T12:14:14.721Z,1.30
2019-04-27T12:16:41.461Z,1.43
2019-04-27T12:19:08.152Z,1.37
2019-04-27T12:21:36.240Z,1.80
2019-04-27T12:24:03.886Z,0.77
2019-04-27T12:26:39.925Z,0.97
2019-04-27T12:29:08.101Z,0.87
2019-04-27T12:31:37.545Z,2.13
2019-04-27T12:34:06.011Z,1.30
2019-04-27T12:36:32.865Z,1.20
2019-04-27T12:38:59.573Z,1.30
2019-04-27T12:41:26.272Z,1.00
2019-04-27T12:43:52.943Z,1.50
2019-04-27T12:46:19.658Z,1.50
2019-04-27T12:48:46.381Z,2.03
2019-04-27T12:51:13.348Z,1.90
2019-04-27T12:53:52.946Z,1.87
2019-04-27T12:56:39.670Z,1.77
2019-04-27T12:59:14.891Z,1.57
2019-04-27T13:01:41.580Z,1.50
2019-04-27T13:04:08.322Z,1.80
2019-04-27T13:06:35.775Z,1.67
2019-04-27T13:09:04.901Z,1.40
2019-04-27T13:11:31.793Z,1.77
2019-04-27T13:13:58.604Z,1.40
2019-04-27T13:16:27.213Z,1.60
2019-04-27T13:18:55.704Z,1.47
2019-04-27T13:21:23.055Z,1.60
2019-04-27T13:24:01.240Z,1.70
2019-04-27T13:26:18.459Z,1.97
2019-04-27T13:28:46.694Z,1.70
2019-04-27T13:31:16.477Z,1.73
2019-04-27T13:33:43.205Z,1.60
2019-04-27T13:36:09.907Z,1.83
2019-04-27T13:38:36.828Z,2.30
2019-04-27T13:41:10.326Z,1.87
2019-04-27T13:43:40.147Z,2.73
2019-04-27T13:46:17.821Z,1.83
2019-04-27T13:49:03.131Z,1.80
2019-04-27T13:51:44.109Z,2.03
2019-04-27T13:54:21.487Z,1.60
2019-04-27T13:56:39.725Z,1.60
2019-04-27T13:59:07.727Z,1.50
2019-04-27T14:01:34.652Z,1.60
2019-04-27T14:04:04.870Z,1.03
2019-04-27T14:06:32.512Z,1.47
2019-04-27T14:08:59.222Z,1.60
2019-04-27T14:11:25.936Z,1.40
2019-04-27T14:13:52.665Z,1.60
2019-04-27T14:16:19.353Z,1.30
2019-04-27T14:18:46.079Z,1.50
2019-04-27T14:21:12.783Z,0.80
2019-04-27T14:23:40.033Z,1.20
2019-04-27T14:26:09.985Z,1.20
2019-04-27T14:28:36.827Z,0.97
2019-04-27T14:31:03.649Z,1.03
2019-04-27T14:33:30.544Z,1.10
2019-04-27T14:35:59.263Z,1.70
2019-04-27T14:38:26.298Z,2.20
2019-04-27T14:40:53.259Z,1.30
2019-04-27T14:43:20.294Z,1.20
2019-04-27T14:45:48.574Z,1.07
2019-04-27T14:48:15.813Z,1.23
2019-04-27T14:50:42.746Z,1.60
2019-04-27T14:53:09.732Z,1.37
2019-04-27T14:55:38.658Z,1.00
2019-04-27T14:58:05.711Z,1.30
2019-04-27T15:00:32.465Z,1.37
2019-04-27T15:02:59.230Z,1.20
2019-04-27T15:05:25.968Z,1.20
2019-04-27T15:07:54.576Z,1.70
2019-04-27T15:10:21.497Z,1.87
2019-04-27T15:12:48.230Z,1.27
2019-04-27T15:15:15.495Z,1.37
2019-04-27T15:17:42.209Z,1.37
2019-04-27T15:20:13.785Z,1.10
2019-04-27T15:22:40.826Z,1.57
2019-04-27T15:25:13.063Z,1.30
2019-04-27T15:27:43.284Z,1.33
2019-04-27T15:30:39.669Z,1.63
2019-04-27T15:33:36.801Z,1.70
2019-04-27T15:36:10.215Z,1.60
2019-04-27T15:38:43.026Z,1.20
2019-04-27T15:41:19.549Z,0.77
2019-04-27T15:43:48.680Z,0.97
2019-04-27T15:46:15.653Z,1.10
2019-04-27T15:48:42.655Z,1.20
2019-04-27T15:51:17.045Z,1.63
2019-04-27T15:53:41.151Z,1.40
2019-04-27T15:56:09.607Z,1.00
2019-04-27T15:58:38.163Z,1.40
2019-04-27T16:01:09.065Z,1.73
2019-04-27T16:03:34.266Z,1.63
2019-04-27T16:06:03.300Z,1.97
2019-04-27T16:08:29.634Z,1.20
2019-04-27T16:10:56.348Z,0.90
2019-04-27T16:13:26.436Z,1.67
2019-04-27T16:15:54.039Z,1.43
2019-04-27T16:18:20.420Z,1.30
2019-04-27T16:20:48.528Z,1.50
2019-04-27T16:23:15.464Z,1.80
2019-04-27T16:25:48.501Z,1.50
2019-04-27T16:28:13.537Z,1.40
2019-04-27T16:30:41.141Z,1.30
2019-04-27T16:33:08.679Z,1.50
2019-04-27T16:35:38.734Z,1.10
2019-04-27T16:38:26.623Z,1.53
2019-04-27T16:40:54.721Z,1.83
2019-04-27T16:43:23.882Z,1.47
2019-04-27T16:45:48.972Z,2.00
2019-04-27T16:48:15.694Z,2.10
2019-04-27T16:50:42.408Z,1.30
2019-04-27T16:53:12.412Z,1.47
2019-04-27T16:55:38.724Z,1.60
2019-04-27T16:58:15.525Z,1.47
2019-04-27T17:00:38.752Z,1.47
2019-04-27T17:03:06.803Z,1.53
2019-04-27T17:05:34.808Z,1.83
2019-04-27T17:08:01.750Z,1.50
2019-04-27T17:10:29.117Z,2.00
2019-04-27T17:12:56.001Z,1.50
2019-04-27T17:15:42.143Z,1.70
2019-04-27T17:18:24.310Z,1.80
2019-04-27T17:20:52.651Z,6.30
2019-04-27T17:23:31.176Z,2.13
2019-04-27T17:26:04.077Z,2.57
2019-04-27T17:28:29.379Z,2.27
2019-04-27T17:30:58.270Z,2.30
2019-04-27T17:33:31.990Z,2.43
2019-04-27T17:35:59.626Z,2.17
2019-04-27T17:38:26.354Z,2.30
2019-04-27T17:40:53.079Z,1.90
2019-04-27T17:43:19.796Z,2.90
2019-04-27T17:45:48.655Z,2.10
2019-04-27T17:48:15.511Z,2.17
2019-04-27T17:50:42.736Z,2.60
2019-04-27T17:53:09.443Z,2.30
2019-04-27T17:55:36.167Z,2.23
2019-04-27T17:58:05.351Z,2.17
2019-04-27T18:00:32.908Z,1.80
2019-04-27T18:03:00.772Z,2.77
2019-04-27T18:05:28.561Z,2.60
2019-04-27T18:07:55.405Z,2.13
2019-04-27T18:10:24.602Z,2.03
2019-04-27T18:12:53.983Z,2.00
2019-04-27T18:15:21.322Z,2.30
2019-04-27T18:17:52.190Z,1.67
2019-04-27T18:20:21.584Z,1.77
2019-04-27T18:22:52.483Z,2.00
2019-04-27T18:25:19.218Z,1.47
2019-04-27T18:28:08.080Z,2.17
2019-04-27T18:31:00.997Z,2.03
2019-04-27T18:33:28.437Z,2.47
2019-04-27T18:35:58.914Z,1.47
2019-04-27T18:38:23.997Z,2.07
2019-04-27T18:40:50.732Z,2.30
2019-04-27T18:43:18.714Z,1.50
2019-04-27T18:45:46.037Z,1.80
2019-04-27T18:48:19.203Z,2.03
2019-04-27T18:51:02.200Z,2.77
2019-04-27T18:53:29.808Z,2.47
2019-04-27T18:56:00.917Z,2.23
2019-04-27T18:58:25.244Z,1.90
2019-04-27T19:00:52.014Z,1.97
2019-04-27T19:03:18.748Z,1.90
2019-04-27T19:05:45.581Z,2.77
2019-04-27T19:08:12.334Z,2.10
2019-04-27T19:10:39.040Z,1.97
2019-04-27T19:13:08.849Z,1.90
2019-04-27T19:15:36.016Z,2.07
2019-04-27T19:18:02.744Z,2.37
2019-04-27T19:20:29.438Z,1.83
2019-04-27T19:22:56.141Z,1.67
2019-04-27T19:25:40.108Z,2.00
2019-04-27T19:28:20.331Z,1.30
2019-04-27T19:30:51.453Z,1.47
2019-04-27T19:33:18.235Z,1.57
2019-04-27T19:35:45.206Z,1.30
2019-04-27T19:38:11.941Z,2.30
2019-04-27T19:40:39.532Z,1.53
2019-04-27T19:43:08.031Z,1.67
2019-04-27T19:45:34.816Z,1.17
2019-04-27T19:48:01.955Z,1.80
2019-04-27T19:50:29.097Z,1.30
2019-04-27T19:52:55.816Z,1.33
2019-04-27T19:55:22.836Z,1.40
2019-04-27T19:57:49.841Z,1.80
2019-04-27T20:00:36.675Z,1.50
2019-04-27T20:03:04.929Z,1.60
2019-04-27T20:05:32.749Z,2.17
2019-04-27T20:08:01.401Z,1.63
2019-04-27T20:10:28.264Z,1.50
2019-04-27T20:12:55.018Z,1.13
2019-04-27T20:15:21.741Z,1.63
2019-04-27T20:17:48.543Z,1.43
2019-04-27T20:20:15.748Z,1.97
2019-04-27T20:22:42.474Z,1.57
2019-04-27T20:25:11.112Z,1.70
2019-04-27T20:27:46.791Z,1.50
2019-04-27T20:30:11.070Z,1.43
2019-04-27T20:32:38.377Z,1.80
2019-04-27T20:35:05.370Z,1.80
2019-04-27T20:37:32.427Z,2.00
2019-04-27T20:40:01.860Z,1.50
2019-04-27T20:42:34.104Z,2.93
2019-04-27T20:45:02.189Z,2.80
2019-04-27T20:47:32.091Z,1.80
2019-04-27T20:50:02.205Z,1.60
2019-04-27T20:52:54.226Z,2.90
2019-04-27T20:55:21.721Z,2.13
2019-04-27T20:57:58.711Z,1.90
2019-04-27T21:00:19.437Z,2.93
2019-04-27T21:02:56.134Z,2.43
2019-04-27T21:05:34.533Z,2.30
2019-04-27T21:08:02.742Z,2.20
2019-04-27T21:10:30.748Z,2.60
2019-04-27T21:13:05.012Z,2.57
2019-04-27T21:15:31.930Z,2.63
2019-04-27T21:17:58.775Z,2.73
2019-04-27T21:20:25.546Z,3.63
2019-04-27T21:22:53.500Z,2.30
2019-04-27T21:25:20.454Z,2.53
2019-04-27T21:27:47.192Z,2.70
2019-04-27T21:30:13.920Z,3.00
2019-04-27T21:32:40.679Z,3.50
2019-04-27T21:35:08.404Z,2.30
2019-04-27T21:37:35.117Z,2.17
2019-04-27T21:40:30.777Z,2.30
2019-04-27T21:42:58.927Z,2.50
2019-04-27T21:45:27.664Z,3.07
2019-04-27T21:47:56.943Z,3.87
2019-04-27T21:50:23.678Z,2.53
2019-04-27T21:53:02.537Z,2.30
2019-04-27T21:55:30.891Z,2.50
2019-04-27T21:57:57.737Z,2.30
2019-04-27T22:00:45.942Z,2.20
2019-04-27T22:03:12.892Z,2.10
2019-04-27T22:05:41.516Z,2.10
2019-04-27T22:08:14.381Z,2.33
2019-04-27T22:10:41.467Z,2.37
2019-04-27T22:13:08.253Z,2.10
2019-04-27T22:15:35.291Z,2.27
2019-04-27T22:18:02.583Z,2.00
2019-04-27T22:20:32.298Z,2.03
2019-04-27T22:23:01.788Z,2.10
2019-04-27T22:25:34.305Z,2.40
2019-04-27T22:28:01.578Z,2.10
2019-04-27T22:30:28.441Z,2.20
2019-04-27T22:32:58.880Z,2.10
2019-04-27T22:35:26.259Z,2.10
2019-04-27T22:37:53.089Z,1.67
2019-04-27T22:40:45.213Z,1.70
2019-04-27T22:43:31.589Z,1.70
2019-04-27T22:46:01.137Z,1.77
2019-04-27T22:48:28.285Z,1.67
2019-04-27T22:50:55.023Z,1.83
2019-04-27T22:53:21.796Z,1.60
2019-04-27T22:56:23.010Z,1.70
2019-04-27T22:59:01.058Z,1.20
2019-04-27T23:02:08.948Z,1.83
2019-04-27T23:04:41.158Z,1.73
2019-04-27T23:07:08.205Z,1.60
2019-04-27T23:09:35.013Z,1.50
2019-04-27T23:12:02.161Z,2.27
2019-04-27T23:14:29.175Z,1.80
2019-04-27T23:17:03.117Z,1.63
2019-04-27T23:19:29.481Z,1.67
2019-04-27T23:21:56.568Z,1.60
2019-04-27T23:24:23.299Z,2.13
2019-04-27T23:26:50.025Z,1.90
2019-04-27T23:29:16.823Z,1.60
2019-04-27T23:32:09.277Z,1.97
2019-04-27T23:34:36.061Z,2.10
2019-04-27T23:37:03.086Z,2.60
2019-04-27T23:39:29.821Z,1.70
2019-04-27T23:41:56.578Z,1.73
2019-04-27T23:44:23.321Z,1.97
2019-04-27T23:46:50.388Z,1.83
2019-04-27T23:49:17.253Z,1.87
2019-04-27T23:51:58.836Z,1.53
2019-04-27T23:54:25.573Z,1.70
2019-04-27T23:56:52.585Z,1.90
2019-04-27T23:59:24.965Z,1.50
